createdAt,value
2022-10-11T00:03:40.613Z,13.63
2022-10-11T00:08:34.614Z,14.50
2022-10-11T00:13:27.321Z,13.93
2022-10-11T00:18:19.845Z,13.60
2022-10-11T00:23:12.411Z,11.33
2022-10-11T00:28:06.827Z,14.53
2022-10-11T00:32:59.353Z,13.00
2022-10-11T00:37:51.917Z,14.87
2022-10-11T00:42:44.615Z,15.27
2022-10-11T00:47:38.429Z,16.07
2022-10-11T00:52:32.272Z,12.67
2022-10-11T00:57:26.152Z,15.10
2022-10-11T01:02:19.300Z,10.97
2022-10-11T01:07:14.280Z,14.60
2022-10-11T01:12:12.031Z,16.27
2022-10-11T01:17:08.245Z,14.37
2022-10-11T01:22:05.925Z,16.63
2022-10-11T01:27:14.402Z,16.90
2022-10-11T01:32:13.583Z,18.17
2022-10-11T01:37:09.496Z,18.73
2022-10-11T01:42:04.024Z,12.90
2022-10-11T01:46:56.952Z,13.13
2022-10-11T01:51:53.164Z,14.90
2022-10-11T01:56:52.535Z,13.77
2022-10-11T02:01:53.849Z,17.83
2022-10-11T02:06:49.965Z,12.13
2022-10-11T02:11:43.869Z,14.53
2022-10-11T02:16:39.969Z,15.97
2022-10-11T02:21:34.392Z,9.93
2022-10-11T02:26:28.792Z,15.57
2022-10-11T02:31:23.127Z,13.30
2022-10-11T02:36:18.179Z,15.20
2022-10-11T02:41:14.348Z,16.53
2022-10-11T02:46:08.565Z,14.10
2022-10-11T02:51:03.325Z,17.93
2022-10-11T02:55:56.062Z,19.20
2022-10-11T03:00:48.609Z,13.20
2022-10-11T03:05:41.562Z,13.67
2022-10-11T03:10:35.418Z,14.23
2022-10-11T03:15:27.888Z,11.93
2022-10-11T03:20:20.361Z,14.63
2022-10-11T03:25:12.906Z,17.00
2022-10-11T03:30:08.788Z,17.77
2022-10-11T03:35:01.655Z,16.13
2022-10-11T03:39:54.148Z,17.23
2022-10-11T03:44:49.479Z,19.43
2022-10-11T03:49:43.906Z,16.50
2022-10-11T03:54:36.477Z,17.80
2022-10-11T03:59:29.016Z,18.07
2022-10-11T04:04:21.559Z,21.53
2022-10-11T04:09:15.618Z,21.03
2022-10-11T04:14:08.100Z,24.70
2022-10-11T04:19:00.580Z,24.90
2022-10-11T04:23:53.030Z,22.00
2022-10-11T04:28:47.025Z,21.43
2022-10-11T04:33:39.570Z,24.37
2022-10-11T04:38:32.143Z,31.40
2022-10-11T04:43:24.603Z,28.13
2022-10-11T04:48:18.438Z,27.00
2022-10-11T04:53:10.884Z,32.10
2022-10-11T04:58:03.339Z,26.10
2022-10-11T05:02:55.806Z,31.07
2022-10-11T05:07:49.658Z,29.93
2022-10-11T05:12:42.154Z,37.30
2022-10-11T05:17:34.917Z,33.27
2022-10-11T05:22:27.404Z,33.47
2022-10-11T05:27:21.263Z,33.80
2022-10-11T05:32:13.744Z,41.67
2022-10-11T05:37:06.264Z,38.47
2022-10-11T05:41:58.736Z,39.23
2022-10-11T05:46:52.656Z,36.57
2022-10-11T05:51:45.137Z,45.60
2022-10-11T05:56:37.618Z,47.23
2022-10-11T06:01:30.205Z,48.63
2022-10-11T06:06:24.729Z,49.33
2022-10-11T06:11:17.889Z,48.03
2022-10-11T06:16:10.372Z,50.13
2022-10-11T06:21:03.118Z,55.23
2022-10-11T06:26:00.390Z,51.10
2022-10-11T06:30:52.874Z,50.23
2022-10-11T06:35:45.335Z,48.17
2022-10-11T06:40:37.848Z,58.43
2022-10-11T06:45:31.702Z,46.47
2022-10-11T06:50:47.152Z,49.67
2022-10-11T06:55:36.921Z,49.80
2022-10-11T07:00:29.436Z,50.63
2022-10-11T07:05:23.303Z,64.10
2022-10-11T07:10:15.944Z,56.53
2022-10-11T07:15:10.197Z,52.77
2022-10-11T07:20:03.130Z,50.67
2022-10-11T07:24:56.953Z,49.67
2022-10-11T07:29:49.421Z,44.63
2022-10-11T07:34:41.914Z,43.13
2022-10-11T07:39:34.605Z,53.27
2022-10-11T07:44:28.494Z,43.90
2022-10-11T07:49:21.018Z,45.73
2022-10-11T07:54:13.479Z,36.87
2022-10-11T07:59:06.310Z,40.80
2022-10-11T08:04:00.262Z,37.53
2022-10-11T08:08:52.745Z,38.73
2022-10-11T08:13:45.377Z,33.77
2022-10-11T08:18:37.834Z,33.97
2022-10-11T08:23:31.631Z,24.30
2022-10-11T08:28:24.104Z,30.30
2022-10-11T08:33:16.994Z,24.90
2022-10-11T08:38:09.519Z,25.30
2022-10-11T08:43:04.796Z,28.77
2022-10-11T08:48:02.561Z,19.43
2022-10-11T08:52:57.198Z,17.80
2022-10-11T08:57:52.150Z,14.07
2022-10-11T09:03:07.387Z,14.70
2022-10-11T09:08:06.281Z,16.60
2022-10-11T09:13:02.553Z,14.90
2022-10-11T09:18:13.020Z,21.93
2022-10-11T09:23:12.240Z,14.30
2022-10-11T09:28:13.335Z,16.33
2022-10-11T09:33:11.854Z,15.13
2022-10-11T09:38:06.891Z,13.03
2022-10-11T09:43:00.763Z,10.70
2022-10-11T09:47:54.507Z,10.67
2022-10-11T09:52:50.785Z,14.57
2022-10-11T09:57:43.366Z,14.63
2022-10-11T10:02:41.902Z,15.17
2022-10-11T10:07:35.232Z,12.50
2022-10-11T10:12:28.760Z,13.90
2022-10-11T10:17:21.332Z,18.07
2022-10-11T10:22:19.650Z,9.40
2022-10-11T10:27:21.030Z,15.10
2022-10-11T10:32:15.504Z,17.13
2022-10-11T10:37:10.492Z,11.60
2022-10-11T10:42:05.971Z,12.07
2022-10-11T10:47:02.372Z,9.00
2022-10-11T10:52:03.073Z,13.13
2022-10-11T10:56:57.070Z,15.27
2022-10-11T11:01:56.704Z,10.63
2022-10-11T11:06:50.802Z,10.40
2022-10-11T11:11:52.376Z,15.20
2022-10-11T11:16:49.590Z,11.40
2022-10-11T11:21:47.588Z,12.27
2022-10-11T11:26:44.465Z,10.70
2022-10-11T11:31:43.136Z,11.37
2022-10-11T11:36:41.478Z,11.30
2022-10-11T11:41:37.490Z,14.40
2022-10-11T11:46:31.276Z,11.77
2022-10-11T11:51:27.804Z,17.00
2022-10-11T11:56:27.834Z,16.87
2022-10-11T12:01:30.929Z,20.10
2022-10-11T12:06:24.943Z,14.70
2022-10-11T12:11:21.573Z,15.10
2022-10-11T12:16:14.752Z,16.40
2022-10-11T12:21:17.569Z,9.83
2022-10-11T12:26:31.959Z,22.67
2022-10-11T12:31:25.637Z,12.77
2022-10-11T12:36:34.036Z,13.27
2022-10-11T12:41:49.743Z,10.93
2022-10-11T12:46:45.265Z,20.10
2022-10-11T12:51:41.894Z,13.07
2022-10-11T12:56:42.641Z,16.40
2022-10-11T13:01:36.541Z,10.73
2022-10-11T13:06:30.828Z,16.10
2022-10-11T13:11:25.901Z,11.90
2022-10-11T13:16:20.084Z,16.67
2022-10-11T13:21:23.105Z,18.00
2022-10-11T13:26:16.654Z,14.30
2022-10-11T13:31:10.557Z,14.43
2022-10-11T13:36:05.324Z,15.03
2022-10-11T13:40:59.227Z,15.17
2022-10-11T13:45:53.648Z,13.70
2022-10-11T13:51:05.508Z,13.07
2022-10-11T13:55:58.896Z,19.23
2022-10-11T14:00:55.281Z,16.80
2022-10-11T14:05:55.296Z,21.67
2022-10-11T14:10:50.662Z,18.00
2022-10-11T14:15:45.489Z,14.10
2022-10-11T14:20:39.191Z,13.47
2022-10-11T14:25:33.541Z,13.37
2022-10-11T14:30:27.775Z,15.30
2022-10-11T14:35:22.640Z,14.30
2022-10-11T14:40:17.148Z,14.83
2022-10-11T14:45:11.949Z,18.67
2022-10-11T14:50:13.655Z,15.80
2022-10-11T14:55:06.340Z,17.50
2022-10-11T14:59:58.947Z,20.77
2022-10-11T15:04:52.904Z,18.23
2022-10-11T15:09:45.758Z,13.00
2022-10-11T15:14:38.284Z,26.33
2022-10-11T15:19:30.823Z,16.63
2022-10-11T15:24:24.707Z,12.80
2022-10-11T15:29:18.877Z,17.20
2022-10-11T15:34:12.290Z,20.00
2022-10-11T15:39:05.110Z,14.50
2022-10-11T15:43:58.956Z,12.13
2022-10-11T15:48:52.819Z,14.40
2022-10-11T15:53:45.812Z,18.73
2022-10-11T15:58:40.135Z,17.60
2022-10-11T16:03:34.285Z,17.47
2022-10-11T16:08:26.925Z,17.13
2022-10-11T16:13:19.498Z,21.77
2022-10-11T16:18:13.295Z,20.97
2022-10-11T16:23:07.189Z,17.63
2022-10-11T16:27:59.963Z,21.20
2022-10-11T16:32:52.510Z,23.20
2022-10-11T16:37:45.410Z,48.70
2022-10-11T16:42:40.157Z,20.90
2022-10-11T16:47:32.877Z,24.93
2022-10-11T16:52:25.472Z,21.43
2022-10-11T16:57:19.827Z,21.37
2022-10-11T17:02:16.081Z,23.93
2022-10-11T17:07:12.219Z,26.03
2022-10-11T17:12:04.796Z,23.73
2022-10-11T17:16:57.363Z,20.73
2022-10-11T17:21:51.242Z,24.07
2022-10-11T17:26:43.825Z,20.70
2022-10-11T17:31:38.399Z,21.63
2022-10-11T17:36:33.981Z,19.00
2022-10-11T17:41:31.872Z,21.77
2022-10-11T17:46:25.792Z,20.00
2022-10-11T17:51:19.426Z,24.40
2022-10-11T17:56:13.791Z,20.00
2022-10-11T18:01:09.886Z,20.73
2022-10-11T18:06:03.662Z,19.33
2022-10-11T18:10:56.215Z,20.37
2022-10-11T18:15:53.378Z,18.27
2022-10-11T18:20:48.957Z,21.60
2022-10-11T18:25:41.497Z,18.20
2022-10-11T18:30:34.030Z,25.10
2022-10-11T18:35:26.542Z,26.73
2022-10-11T18:40:20.483Z,24.70
2022-10-11T18:45:13.103Z,32.00
2022-10-11T18:50:05.984Z,22.53
2022-10-11T18:54:58.667Z,25.27
2022-10-11T18:59:53.546Z,23.03
2022-10-11T19:04:52.371Z,19.50
2022-10-11T19:09:44.916Z,21.97
2022-10-11T19:14:37.533Z,19.10
2022-10-11T19:19:32.772Z,15.37
2022-10-11T19:24:26.561Z,13.53
2022-10-11T19:29:20.136Z,11.20
2022-10-11T19:34:12.908Z,11.60
2022-10-11T19:39:06.800Z,12.87
2022-10-11T19:43:59.320Z,15.23
2022-10-11T19:48:52.513Z,9.60
2022-10-11T19:53:45.886Z,9.70
2022-10-11T19:58:40.336Z,9.53
2022-10-11T20:03:33.152Z,12.23
2022-10-11T20:08:25.633Z,10.10
2022-10-11T20:13:18.178Z,14.50
2022-10-11T20:18:12.015Z,13.17
2022-10-11T20:23:04.634Z,18.60
2022-10-11T20:27:57.164Z,10.80
2022-10-11T20:32:49.734Z,12.43
2022-10-11T20:37:43.599Z,13.37
2022-10-11T20:42:36.064Z,13.90
2022-10-11T20:47:28.555Z,15.50
2022-10-11T20:52:21.100Z,16.00
2022-10-11T20:57:14.960Z,12.50
2022-10-11T21:02:07.952Z,10.00
2022-10-11T21:07:00.473Z,13.87
2022-10-11T21:11:53.075Z,15.07
2022-10-11T21:16:46.973Z,18.00
2022-10-11T21:21:39.456Z,11.60
2022-10-11T21:26:32.142Z,10.60
2022-10-11T21:31:25.903Z,15.87
2022-10-11T21:36:23.124Z,12.83
2022-10-11T21:41:16.240Z,10.07
2022-10-11T21:46:09.650Z,9.10
2022-10-11T21:51:02.253Z,9.30
2022-10-11T21:55:58.623Z,14.33
2022-10-11T22:00:51.114Z,12.27
2022-10-11T22:05:44.169Z,13.47
2022-10-11T22:10:36.722Z,12.87
2022-10-11T22:15:33.689Z,11.30
2022-10-11T22:20:26.241Z,10.83
2022-10-11T22:25:18.855Z,16.93
2022-10-11T22:30:11.746Z,12.27
2022-10-11T22:35:06.072Z,10.37
2022-10-11T22:39:58.616Z,12.17
2022-10-11T22:44:51.139Z,16.57
2022-10-11T22:49:43.670Z,15.37
2022-10-11T22:54:37.510Z,12.20
2022-10-11T22:59:30.004Z,13.00
2022-10-11T23:04:22.616Z,12.27
2022-10-11T23:09:15.140Z,14.80
2022-10-11T23:14:09.015Z,13.60
2022-10-11T23:19:01.488Z,13.03
2022-10-11T23:23:54.551Z,14.10
2022-10-11T23:28:47.175Z,15.43
2022-10-11T23:33:41.183Z,19.73
2022-10-11T23:38:33.684Z,21.97
2022-10-11T23:43:26.183Z,18.07
2022-10-11T23:48:18.692Z,19.13
2022-10-11T23:53:14.276Z,12.80
2022-10-11T23:58:06.833Z,15.93
